• Join FlightAware (Why Join?)
  • Login
  • US Flag 
06:51AM EDT


 

Airport Tracker/Info


-or-


 

Live Flight TrackerFlight Track Log ✈ ASA51 ✈ 03-Sep-2013 ✈ PASC / SCC - PANC

Flight Track Log - Related Links

Times and Time Zones

All times are in EDT time to prevent confusion due to time zone crossing. See the ASA51 flight status page for this flight to view local times or setup timezone preferences in your user account.

Time Position Orientation Groundspeed Altitude Reporting Facility
EDT Latitude Longitude Course Direction KTS MPH feet Rate Location/Type
01:15AM 70.1000 -148.2667 185° South 260 299 9,300  Level Anchorage Center
01:16AM 70.0167 -148.3000 188° South 320 368 12,200 3,420 Climbing Anchorage Center
01:17AM 69.9333 -148.3167 184° South 350 403 16,200 3,900 Climbing Anchorage Center
01:18AM 69.8333 -148.3667 190° South 370 426 20,100 3,360 Climbing Anchorage Center
01:19AM 69.7333 -148.4000 187° South 380 437 23,000 2,700 Climbing Anchorage Center
01:20AM 69.5932 -148.6080 185° South  Level Estimated
01:20AM 69.6167 -148.4333 186° South 400 460 25,500  Level Anchorage Center
01:21AM 69.5333 -148.4667 188° South 410 472 27,900 2,520 Climbing Anchorage Center
01:22AM 69.4167 -148.5000 186° South 410 472 30,600 2,520 Climbing Anchorage Center
01:23AM 69.3000 -148.5333 186° South 410 472 33,000 2,160 Climbing Anchorage Center
01:24AM 69.1833 -148.5667 186° South 400 460 35,000 960 Climbing Anchorage Center
01:25AM 69.0833 -148.6167 190° South 410 472 35,000  Level Anchorage Center
01:26AM 68.9667 -148.6500 186° South 410 472 35,000  Level Anchorage Center
01:27AM 68.8500 -148.6833 186° South 400 460 35,000  Level Anchorage Center
01:28AM 68.7500 -148.7167 187° South 400 460 35,000  Level Anchorage Center
01:29AM 68.6333 -148.7667 189° South 400 460 35,000  Level Anchorage Center
01:30AM 68.5167 -148.8000 186° South 400 460 35,000  Level Anchorage Center
01:31AM 68.4167 -148.8333 187° South 400 460 35,000  Level Anchorage Center
01:32AM 68.3000 -148.8667 186° South 400 460 35,000  Level Anchorage Center
01:33AM 68.1833 -148.9000 186° South 400 460 35,000  Level Anchorage Center
01:34AM 68.0833 -148.9333 187° South 400 460 35,000  Level Anchorage Center
01:35AM 67.9500 -148.9667 185° South 390 449 35,000  Level Anchorage Center
01:36AM 67.8500 -149.0000 187° South 400 460 35,000  Level Anchorage Center
01:37AM 67.7333 -149.0333 186° South 390 449 35,000  Level Anchorage Center
01:38AM 67.6167 -149.0667 186° South 400 460 35,000  Level Anchorage Center
01:39AM 67.5167 -149.1000 187° South 400 460 35,000  Level Anchorage Center
01:40AM 67.4000 -149.1333 186° South 400 460 35,000  Level Anchorage Center
01:41AM 67.3000 -149.1667 187° South 390 449 35,000  Level Anchorage Center
01:42AM 67.1833 -149.2000 186° South 390 449 35,000  Level Anchorage Center
01:43AM 67.0833 -149.2167 184° South 400 460 35,000  Level Anchorage Center
01:44AM 66.9667 -149.2500 186° South 390 449 35,000  Level Anchorage Center
01:45AM 66.8667 -149.2833 187° South 390 449 35,000  Level Anchorage Center
01:46AM 66.7500 -149.3167 186° South 390 449 35,000  Level Anchorage Center
01:47AM 66.6500 -149.3333 184° South 400 460 35,000  Level Anchorage Center
01:48AM 66.5333 -149.3667 186° South 400 460 35,000  Level Anchorage Center
01:49AM 66.4333 -149.4000 188° South 400 460 35,000  Level Anchorage Center
01:50AM 66.3167 -149.4167 183° South 410 472 35,000  Level Anchorage Center
01:51AM 66.2167 -149.4500 188° South 400 460 35,000  Level Anchorage Center
01:52AM 66.1000 -149.4833 187° South 400 460 35,000  Level Anchorage Center
01:53AM 65.9833 -149.5000 183° South 400 460 35,000  Level Anchorage Center
01:54AM 65.8833 -149.5333 188° South 400 460 35,000  Level Anchorage Center
01:55AM 65.7667 -149.5667 187° South 390 449 35,000  Level Anchorage Center
01:56AM 65.6667 -149.5833 184° South 390 449 35,000  Level Anchorage Center
01:57AM 65.5500 -149.6167 187° South 390 449 35,000  Level Anchorage Center
01:58AM 65.4500 -149.6500 188° South 390 449 35,000  Level Anchorage Center
01:59AM 65.3500 -149.6667 184° South 380 437 35,000  Level Anchorage Center
02:00AM 65.2333 -149.7000 187° South 390 449 35,000  Level Anchorage Center
02:01AM 65.1333 -149.7167 184° South 380 437 35,000  Level Anchorage Center
02:02AM 65.0333 -149.7500 188° South 380 437 35,000  Level Anchorage Center
02:03AM 64.9167 -149.7667 183° South 380 437 35,000  Level Anchorage Center
02:04AM 64.8167 -149.8000 188° South 380 437 35,000  Level Anchorage Center
02:05AM 64.7167 -149.8167 184° South 380 437 35,000  Level Anchorage Center
02:06AM 64.6000 -149.8500 187° South 380 437 35,000  Level Anchorage Center
02:07AM 64.5000 -149.8667 184° South 390 449 35,000  Level Anchorage Center
02:08AM 64.4000 -149.9000 188° South 380 437 35,000  Level Anchorage Center
02:09AM 64.2833 -149.9167 184° South 390 449 35,000  Level Anchorage Center
02:10AM 64.1833 -149.9500 188° South 380 437 35,000  Level Anchorage Center
02:11AM 64.0833 -149.9667 184° South 380 437 35,000  Level Anchorage Center
02:12AM 63.9667 -149.9833 184° South 380 437 35,000  Level Anchorage Center
02:13AM 63.8667 -150.0167 188° South 380 437 35,000  Level Anchorage Center
02:14AM 63.7667 -150.0333 184° South 390 449 35,000  Level Anchorage Center
02:15AM 63.6500 -150.0500 184° South 380 437 35,000  Level Anchorage Center
02:16AM 63.5500 -150.0833 188° South 380 437 35,000  Level Anchorage Center
02:17AM 63.4500 -150.1000 184° South 380 437 35,000  Level Anchorage Center
02:18AM 63.3333 -150.1333 187° South 370 426 35,000  Level Anchorage Center
02:19AM 63.2333 -150.1500 184° South 380 437 35,000  Level Anchorage Center
02:20AM 63.1333 -150.1667 184° South 380 437 35,100  Climbing Anchorage Center
02:21AM 63.0167 -150.1833 184° South 390 449 35,000 -60 Descending Anchorage Center
02:22AM 62.9167 -150.2167 189° South 380 437 35,000  Level Anchorage Center
02:23AM 62.8167 -150.2333 184° South 380 437 35,000  Level Anchorage Center
02:24AM 62.7000 -150.2500 184° South 360 414 35,000 -420 Level Anchorage Center
02:25AM 62.6000 -150.2667 184° South 380 437 34,200 -2,100 Descending Anchorage Center
02:26AM 62.4833 -150.3000 188° South 380 437 30,900 -3,420 Descending Anchorage Center
02:27AM 62.3667 -150.3167 184° South 370 426 27,400 -3,300 Descending Anchorage Center
02:28AM 62.2667 -150.3333 184° South 370 426 24,400 -2,520 Descending Anchorage Center
02:29AM 62.1833 -150.3500 185° South 350 403 22,400 -2,220 Descending Anchorage Center
02:30AM 62.0833 -150.3667 184° South 320 368 20,000 -2,580 Descending Anchorage Center
02:31AM 62.0000 -150.3833 185° South 310 357 17,300 -2,460 Descending Anchorage Center
02:32AM 61.9167 -150.4000 185° South 300 345 15,100 -2,220 Descending Anchorage Center
02:34AM 61.7540 -150.4329 183° South  Level FlightAware Approximate
02:41AM 61.1741 -149.9982 154° Southeast  Level Estimated
02:42AM 61.1741 -149.9982 154° Southeast  Level Estimated
02:43AM 61.1741 -149.9982 154° Southeast  Level Estimated
02:44AM 61.1741 -149.9982 154° Southeast  Level Estimated
02:45AM 61.1741 -149.9982 154° Southeast  Level Estimated
02:46AM 61.1741 -149.9982 154° Southeast  Level Estimated
02:47AM 61.1741 -149.9982 154° Southeast  Level Estimated
02:48AM 61.1741 -149.9982 154° Southeast  Level Estimated
02:49AM 61.1741 -149.9982 154° Southeast  Level Estimated
02:50AM 61.1741 -149.9982 154° Southeast  Level Estimated
02:51AM 61.1741 -149.9982 154° Southeast  Level Estimated
02:52AM 61.1741 -149.9982 154° Southeast  Level Estimated
02:53AM 61.1741 -149.9982 154° Southeast  Level Estimated
02:54AM 61.1741 -149.9982 154° Southeast  Level Estimated
02:55AM 61.1741 -149.9982 154° Southeast  Level Estimated
02:56AM 61.1741 -149.9982 154° Southeast  Level Estimated
02:57AM 61.1741 -149.9982 154° Southeast  Level Estimated
02:58AM 61.1741 -149.9982 154° Southeast  Level Estimated
02:59AM 61.1741 -149.9982 154° Southeast  Level Estimated
03:00AM 61.1741 -149.9982 154° Southeast  Level Estimated
03:01AM 61.1741 -149.9982 154° Southeast  Level Estimated
03:02AM 61.1741 -149.9982 154° Southeast  Level Estimated
03:03AM 61.1741 -149.9982 154° Southeast  Level Estimated
03:04AM 61.1741 -149.9982 154° Southeast  Level Estimated
03:05AM 61.1741 -149.9982 154° Southeast  Level Estimated
03:06AM 61.1741 -149.9982 154° Southeast  Level Estimated
03:07AM 61.1741 -149.9982 154° Southeast  Level Estimated
03:08AM 61.1741 -149.9982 154° Southeast  Level Estimated
03:09AM 61.1741 -149.9982 154° Southeast  Level Estimated
03:10AM 61.1741 -149.9982 154° Southeast  Level Estimated
03:11AM 61.1741 -149.9982 154° Southeast  Level Estimated
03:12AM 61.1741 -149.9982 154° Southeast  Level Estimated
03:13AM 61.1741 -149.9982 154° Southeast  Level Estimated
03:14AM 61.1741 -149.9982 154° Southeast  Level Estimated
03:15AM 61.1741 -149.9982 154° Southeast  Level Estimated
03:16AM 61.1741 -149.9982 154° Southeast  Level Estimated
03:17AM 61.1741 -149.9982 154° Southeast  Level Estimated
03:18AM 61.1741 -149.9982 154° Southeast  Level Estimated
03:19AM 61.1741 -149.9982 154° Southeast  Level Estimated
03:20AM 61.1741 -149.9982 154° Southeast  Level Estimated
03:21AM 61.1741 -149.9982 154° Southeast  Level Estimated